Wendover Airport
KENV : now visible

Airfield :











YOU CAN JOIN US ON...

 
LOGIN :

Register | Disclaimer

   EN    FR    IT 

 









Legend :    VFR   Marginal VFR   IFR   Intensive IFR   Very Intensive IFR
Visi :
Ceiling :
>= 8 km
>= 3000ft
5 to 8 km
1000 to 3000 ft
1500m to 5 km
500 to 1000 ft
800 to 1500m
200 to 500 ft
< 800m
< 200 ft
Symbols :   Thunderstorms  Fog  Heavy snow  Heavy precipitations  Wind > 20 kt






- Airport Elevation : 4237 ft


KENV - Wendover

CURRENT METAR :
  • 041356Z AUTO 00000KT 10SM FEW060 OVC080 M02/M06 A3011 RMK AO2 SLP229 T10221056 FZRANO

EXPIRED METARs :
  • 041256Z AUTO 00000KT 10SM SCT110 M03/M06 A3012 RMK AO2 SLP235 T10281061 FZRANO
  • 041211Z AUTO 00000KT 10SM FEW024 BKN080 M03/M06 A3013 RMK AO2 FZRANO
  • 041156Z AUTO 00000KT 10SM BKN024 BKN080 M03/M06 A3014 RMK AO2 SLP239 T10281056 11011 21028 56012 FZRANO

TAF KENV
Valid from the 04 at 12:00 until the 05 at 12:00 UTC


041130Z 0412/0512 VRB04KT P6SM BKN025 OVC080
FM041400 VRB04KT P6SM SCT060 BKN100
FM050100 34008KT P6SM -RASN SCT025 OVC040
FM050300 36010KT P6SM BKN040
FM050700 34005KT P6SM SCT080
KZLC FIR / North America



MET'MAP, your aeronautical weather chart ! - Copyright ORBIFLY December 2007 - Disclaimer

ORBIFLY MET'MAP TEAM :

Programming & Development : Alexandra Zaïnal
Original concept : Baudouin d'Aumeries
Technical & hardware support : Manuel Goepfert
Assistance : Marc-Olivier Méhu




SOURCES & CREDITS :

   NOAA       Earth
Advisory